Time;durP1;ratioP1;P1;durP2;ratioP2;P2;SDS_P1;SDS_P2;PMS_P1;PMS_P2;Temp;Humidity;BMP_temperature;BMP_pressure;BME280_temperature;BME280_humidity;BME280_pressure;Samples;Min_cycle;Max_cycle;Signal;HPM_P1;HPM_P2
2023/08/03 00:01:53;;;;;;;6.03;2.00;;;22.00;64.10;;;;;;5008566;28;20537;-51
2023/08/03 00:04:19;;;;;;;4.77;1.60;;;22.10;63.40;;;;;;5007053;28;20221;-47
2023/08/03 00:06:44;;;;;;;3.60;2.20;;;22.00;63.30;;;;;;5007828;28;20924;-51
2023/08/03 00:09:10;;;;;;;4.20;1.60;;;22.00;61.80;;;;;;5011257;28;20225;-52
2023/08/03 00:11:36;;;;;;;5.27;2.10;;;21.90;62.50;;;;;;4993154;28;20183;-50
2023/08/03 00:14:01;;;;;;;4.23;1.80;;;22.10;62.70;;;;;;5014175;28;20276;-47
2023/08/03 00:16:27;;;;;;;6.90;2.03;;;22.20;62.10;;;;;;5010752;28;20194;-51
2023/08/03 00:18:52;;;;;;;5.97;2.20;;;22.10;61.80;;;;;;4996147;28;20279;-47
2023/08/03 00:21:18;;;;;;;4.63;2.10;;;22.20;61.90;;;;;;5007589;28;21005;-50
2023/08/03 00:23:44;;;;;;;3.87;1.83;;;22.10;61.90;;;;;;5010772;28;20280;-49
2023/08/03 00:26:09;;;;;;;3.80;1.93;;;22.10;61.40;;;;;;5006101;28;20197;-50
2023/08/03 00:28:35;;;;;;;6.80;2.00;;;22.20;61.30;;;;;;5012423;28;20798;-50
2023/08/03 00:31:00;;;;;;;3.23;1.87;;;22.40;60.80;;;;;;5010760;28;20190;-47
2023/08/03 00:33:26;;;;;;;8.47;2.27;;;22.30;60.40;;;;;;4995557;28;20191;-49
2023/08/03 00:35:52;;;;;;;2.73;1.70;;;22.30;60.80;;;;;;5002219;28;20194;-51
2023/08/03 00:38:17;;;;;;;4.03;2.00;;;22.20;61.10;;;;;;5006206;28;20480;-47
2023/08/03 00:40:43;;;;;;;6.03;2.07;;;22.20;61.30;;;;;;5005173;28;20190;-47
2023/08/03 00:43:09;;;;;;;4.70;1.67;;;22.10;61.70;;;;;;5001521;28;20665;-46
2023/08/03 00:45:35;;;;;;;3.70;2.00;;;22.00;61.70;;;;;;5003818;28;20225;-49
2023/08/03 00:48:00;;;;;;;6.00;2.27;;;21.80;62.50;;;;;;5013116;28;20194;-46
2023/08/03 00:50:26;;;;;;;5.80;2.07;;;21.80;62.80;;;;;;5000164;28;20198;-48
2023/08/03 00:52:52;;;;;;;4.40;1.87;;;21.80;62.90;;;;;;5001997;28;20225;-46
2023/08/03 00:55:18;;;;;;;5.73;2.43;;;21.80;62.80;;;;;;5004580;28;20197;-46
2023/08/03 00:57:43;;;;;;;7.27;2.70;;;21.80;62.30;;;;;;5009727;28;20861;-46
2023/08/03 01:00:09;;;;;;;4.90;2.10;;;21.90;62.50;;;;;;5003967;28;20233;-47
2023/08/03 01:02:35;;;;;;;5.67;1.90;;;21.90;62.30;;;;;;5003827;28;20245;-51
2023/08/03 01:05:01;;;;;;;5.17;1.80;;;21.90;61.60;;;;;;5007187;28;20453;-45
2023/08/03 01:07:26;;;;;;;5.70;1.90;;;21.90;62.00;;;;;;5008723;28;20202;-51
2023/08/03 01:09:52;;;;;;;7.27;1.70;;;21.90;62.00;;;;;;5009463;28;20198;-48
2023/08/03 01:12:18;;;;;;;4.47;2.30;;;22.00;61.70;;;;;;5009670;28;20198;-49
2023/08/03 01:14:44;;;;;;;7.00;2.17;;;21.80;62.20;;;;;;5008573;28;20194;-49
2023/08/03 01:17:10;;;;;;;4.93;1.80;;;21.70;62.90;;;;;;5002820;28;20531;-48
2023/08/03 01:19:36;;;;;;;6.37;2.13;;;21.50;62.80;;;;;;4999859;28;20594;-51
2023/08/03 01:22:03;;;;;;;5.73;2.20;;;21.50;63.10;;;;;;4996915;28;20222;-51
2023/08/03 01:24:29;;;;;;;7.13;2.20;;;21.50;63.20;;;;;;5012017;28;20232;-46
2023/08/03 01:26:59;;;;;;;6.50;2.30;;;21.30;62.20;;;;;;5010827;28;20425;-51
2023/08/03 01:29:25;;;;;;;5.23;2.40;;;21.10;62.50;;;;;;5007802;28;20503;-49
2023/08/03 01:31:56;;;;;;;7.37;2.33;;;21.30;63.00;;;;;;5002055;28;20815;-47
2023/08/03 01:34:25;;;;;;;7.53;2.10;;;21.20;62.70;;;;;;5012983;28;21066;-48
2023/08/03 01:36:55;;;;;;;5.00;2.20;;;21.10;62.50;;;;;;5009461;28;20470;-46
2023/08/03 01:39:22;;;;;;;3.03;2.00;;;21.20;63.00;;;;;;5004813;28;20543;-50
2023/08/03 01:41:48;;;;;;;4.27;1.80;;;21.10;62.30;;;;;;5004031;28;20440;-45
2023/08/03 01:44:30;;;;;;;11.10;2.23;;;21.10;62.90;;;;;;5009358;28;20453;-48
2023/08/03 01:46:58;;;;;;;6.17;1.97;;;21.10;62.40;;;;;;4999395;28;20201;-46
2023/08/03 01:49:26;;;;;;;5.97;1.93;;;21.20;62.20;;;;;;5005984;28;20441;-50
2023/08/03 01:51:52;;;;;;;12.10;2.10;;;21.50;61.70;;;;;;5000575;28;20483;-49
2023/08/03 01:54:17;;;;;;;3.50;2.13;;;21.40;60.70;;;;;;5002179;28;20449;-48
2023/08/03 01:56:43;;;;;;;3.90;1.57;;;21.30;60.00;;;;;;5004625;28;20190;-46
2023/08/03 01:59:10;;;;;;;6.57;1.50;;;21.10;59.60;;;;;;5004244;28;20229;-45
2023/08/03 02:01:35;;;;;;;3.10;1.90;;;21.10;59.70;;;;;;5002692;28;20743;-46
2023/08/03 02:04:01;;;;;;;10.37;2.07;;;21.10;59.60;;;;;;5009100;28;20444;-49
2023/08/03 02:06:27;;;;;;;3.00;1.90;;;21.10;59.10;;;;;;5006469;28;20204;-47
2023/08/03 02:08:52;;;;;;;4.53;1.67;;;21.20;58.80;;;;;;4999064;28;20745;-47
2023/08/03 02:11:18;;;;;;;3.70;1.20;;;21.10;58.50;;;;;;5008453;28;20211;-46
2023/08/03 02:13:43;;;;;;;5.30;2.37;;;21.10;58.20;;;;;;5014167;28;20196;-46
2023/08/03 02:16:10;;;;;;;3.37;1.40;;;21.00;58.30;;;;;;5009913;28;20269;-47
2023/08/03 02:18:39;;;;;;;4.80;1.50;;;21.00;58.10;;;;;;4998325;28;20718;-46
2023/08/03 02:21:05;;;;;;;8.43;1.90;;;20.90;58.10;;;;;;5005895;28;20511;-46
2023/08/03 02:23:31;;;;;;;4.70;1.40;;;21.00;58.10;;;;;;5004033;28;20968;-47
2023/08/03 02:25:57;;;;;;;3.73;1.70;;;21.10;58.00;;;;;;5007680;28;20469;-47
2023/08/03 02:28:22;;;;;;;5.43;1.83;;;21.10;58.10;;;;;;5003964;28;20218;-49
2023/08/03 02:30:48;;;;;;;7.40;2.07;;;21.10;57.90;;;;;;4998336;28;20200;-45
2023/08/03 02:33:14;;;;;;;5.87;2.03;;;21.00;57.90;;;;;;4998891;28;20824;-46
2023/08/03 02:35:39;;;;;;;4.70;1.97;;;21.00;58.00;;;;;;5008027;28;20657;-46
2023/08/03 02:38:06;;;;;;;2.60;1.27;;;21.10;58.20;;;;;;5001390;28;20274;-46
2023/08/03 02:40:31;;;;;;;5.97;2.33;;;21.20;58.00;;;;;;5010555;28;20599;-46
2023/08/03 02:42:57;;;;;;;5.60;1.70;;;21.10;57.60;;;;;;4993328;28;20444;-45
2023/08/03 02:45:23;;;;;;;6.27;1.60;;;21.20;57.90;;;;;;5006271;28;20205;-46
2023/08/03 02:47:48;;;;;;;6.30;2.07;;;21.10;58.00;;;;;;5005351;28;20183;-47
2023/08/03 02:50:14;;;;;;;4.97;2.30;;;21.20;57.90;;;;;;5001590;28;20583;-45
2023/08/03 02:52:39;;;;;;;4.93;1.80;;;21.40;57.80;;;;;;5002717;28;20565;-46
2023/08/03 02:55:05;;;;;;;6.43;2.03;;;21.40;57.60;;;;;;5007528;28;20198;-45
2023/08/03 02:57:31;;;;;;;5.80;2.40;;;21.20;57.50;;;;;;5006851;28;20198;-45
2023/08/03 02:59:57;;;;;;;7.67;1.60;;;21.20;57.90;;;;;;5007645;28;20584;-47
2023/08/03 03:02:22;;;;;;;8.33;1.80;;;21.30;58.10;;;;;;5004064;28;20198;-45
2023/08/03 03:04:49;;;;;;;6.00;1.73;;;21.40;57.70;;;;;;5004366;28;20200;-46
2023/08/03 03:07:15;;;;;;;3.50;1.70;;;21.30;57.80;;;;;;5002415;28;20191;-47
2023/08/03 03:09:41;;;;;;;5.03;1.73;;;21.30;57.50;;;;;;4998568;28;20497;-45
2023/08/03 03:12:07;;;;;;;5.73;1.50;;;21.30;57.80;;;;;;5008730;28;20202;-47
2023/08/03 03:14:35;;;;;;;5.83;1.93;;;21.10;58.00;;;;;;5000500;28;20200;-46
2023/08/03 03:17:01;;;;;;;5.30;1.40;;;21.10;58.20;;;;;;5003872;28;20461;-46
2023/08/03 03:19:27;;;;;;;6.90;1.67;;;20.70;58.40;;;;;;5010170;28;20567;-46
2023/08/03 03:21:52;;;;;;;4.87;1.50;;;20.80;58.60;;;;;;5001864;28;20537;-47
2023/08/03 03:24:18;;;;;;;5.93;1.83;;;20.90;58.80;;;;;;5003545;28;20277;-46
2023/08/03 03:26:43;;;;;;;7.10;1.77;;;20.80;58.80;;;;;;4996454;28;20194;-46
2023/08/03 03:29:09;;;;;;;6.70;1.73;;;20.80;58.70;;;;;;5009284;28;20202;-46
2023/08/03 03:31:34;;;;;;;8.10;2.17;;;20.60;58.60;;;;;;5005771;28;20199;-47
2023/08/03 03:34:00;;;;;;;4.33;1.73;;;20.60;58.90;;;;;;5008658;28;20208;-45
2023/08/03 03:36:26;;;;;;;5.43;1.77;;;20.60;59.00;;;;;;4999827;28;20293;-45
2023/08/03 03:38:51;;;;;;;4.33;2.07;;;20.60;58.80;;;;;;5016233;28;20231;-46
2023/08/03 03:41:17;;;;;;;9.33;3.70;;;20.50;58.70;;;;;;4996951;28;20273;-45
2023/08/03 03:43:42;;;;;;;5.97;1.53;;;20.50;59.00;;;;;;5015631;28;20645;-45
2023/08/03 03:46:08;;;;;;;3.27;1.80;;;20.60;59.10;;;;;;5012352;28;20270;-45
2023/08/03 03:48:33;;;;;;;4.87;1.67;;;20.50;58.40;;;;;;5008355;28;20280;-45
2023/08/03 03:50:59;;;;;;;6.57;2.33;;;20.60;58.50;;;;;;5005199;28;20206;-45
2023/08/03 03:53:24;;;;;;;4.60;2.00;;;20.70;58.50;;;;;;5008463;28;20685;-47
2023/08/03 03:55:50;;;;;;;4.57;2.03;;;20.70;58.10;;;;;;5006903;28;20201;-45
2023/08/03 03:58:16;;;;;;;5.10;1.60;;;20.50;58.20;;;;;;5011054;28;20194;-46
2023/08/03 04:00:41;;;;;;;4.83;2.03;;;20.70;58.50;;;;;;5010517;28;20717;-44
2023/08/03 04:03:07;;;;;;;4.13;1.87;;;20.80;58.30;;;;;;5002450;28;20796;-46
2023/08/03 04:05:34;;;;;;;7.03;1.60;;;20.80;58.10;;;;;;5009920;28;20252;-44
2023/08/03 04:08:01;;;;;;;6.07;1.90;;;20.70;58.30;;;;;;5012302;28;20962;-44
2023/08/03 04:10:27;;;;;;;7.53;3.67;;;20.80;58.20;;;;;;5009319;28;20947;-44
2023/08/03 04:12:53;;;;;;;7.40;1.93;;;20.90;58.60;;;;;;5005944;28;20475;-45
2023/08/03 04:15:18;;;;;;;8.17;1.70;;;21.10;57.80;;;;;;5011799;28;20900;-44
2023/08/03 04:17:48;;;;;;;5.10;1.63;;;21.20;57.40;;;;;;5005759;28;20704;-45
2023/08/03 04:20:15;;;;;;;8.27;2.10;;;21.00;57.20;;;;;;5010881;28;20236;-45
2023/08/03 04:22:41;;;;;;;4.70;1.77;;;21.00;57.20;;;;;;5012923;28;20789;-47
2023/08/03 04:25:07;;;;;;;5.43;1.77;;;21.10;57.20;;;;;;5010286;28;20459;-51
2023/08/03 04:27:33;;;;;;;5.50;1.63;;;21.30;56.90;;;;;;5011879;28;20502;-45
2023/08/03 04:29:59;;;;;;;7.20;1.70;;;21.00;56.90;;;;;;5005919;28;20974;-47
2023/08/03 04:32:24;;;;;;;7.00;2.23;;;21.00;57.20;;;;;;5016749;28;20191;-48
2023/08/03 04:34:50;;;;;;;4.17;1.63;;;21.10;57.20;;;;;;5008726;28;20229;-48
2023/08/03 04:37:16;;;;;;;4.40;1.60;;;21.20;57.00;;;;;;5013782;28;20198;-50
2023/08/03 04:39:41;;;;;;;2.77;1.50;;;21.10;56.70;;;;;;5013109;28;20230;-47
2023/08/03 04:42:07;;;;;;;4.17;1.17;;;21.30;56.50;;;;;;5011375;28;20202;-50
2023/08/03 04:44:32;;;;;;;1.30;1.07;;;21.00;56.40;;;;;;5008416;28;20724;-49
2023/08/03 04:46:58;;;;;;;5.03;1.73;;;21.10;56.60;;;;;;5012295;28;20292;-50
2023/08/03 04:49:25;;;;;;;3.80;1.40;;;21.10;56.50;;;;;;5010589;28;20529;-51
2023/08/03 04:51:51;;;;;;;2.60;1.27;;;21.00;56.40;;;;;;5012933;28;20320;-50
2023/08/03 04:54:17;;;;;;;3.93;1.60;;;21.00;56.70;;;;;;5012652;28;20539;-48
2023/08/03 04:56:42;;;;;;;3.13;1.13;;;21.00;56.80;;;;;;5004697;28;20520;-49
2023/08/03 04:59:08;;;;;;;4.47;1.20;;;21.10;56.40;;;;;;5005379;28;20657;-49
2023/08/03 05:01:33;;;;;;;4.87;1.17;;;20.90;56.40;;;;;;4997326;28;20190;-50
2023/08/03 05:04:02;;;;;;;4.67;1.30;;;21.10;56.60;;;;;;5009713;28;20993;-49
2023/08/03 05:06:28;;;;;;;3.33;1.23;;;21.20;56.30;;;;;;5004856;28;20202;-46
2023/08/03 05:08:54;;;;;;;2.17;1.30;;;21.40;56.00;;;;;;5005076;28;20825;-49
2023/08/03 05:11:19;;;;;;;4.30;1.13;;;21.20;56.00;;;;;;5009342;28;20494;-46
2023/08/03 05:13:45;;;;;;;4.40;1.10;;;21.30;56.10;;;;;;5006513;28;20203;-47
2023/08/03 05:16:11;;;;;;;2.70;1.60;;;21.20;56.50;;;;;;4998117;28;20220;-45
2023/08/03 05:18:36;;;;;;;3.40;1.40;;;21.20;57.00;;;;;;5005294;28;20229;-45
2023/08/03 05:21:02;;;;;;;3.73;1.30;;;21.20;56.90;;;;;;5008332;28;20301;-45
2023/08/03 05:23:28;;;;;;;4.33;1.13;;;21.20;56.80;;;;;;5007533;28;20710;-46
2023/08/03 05:25:55;;;;;;;3.70;1.10;;;21.20;56.80;;;;;;4996866;28;20277;-45
2023/08/03 05:28:21;;;;;;;5.80;1.50;;;21.00;57.00;;;;;;4992551;28;20226;-45
2023/08/03 05:30:47;;;;;;;3.13;1.37;;;21.20;57.40;;;;;;5009967;28;20538;-46
2023/08/03 05:33:13;;;;;;;2.43;1.10;;;21.10;57.10;;;;;;5010599;28;20544;-45
2023/08/03 05:35:38;;;;;;;3.57;1.53;;;21.00;57.30;;;;;;5002903;28;20642;-45
2023/08/03 05:38:04;;;;;;;3.87;1.97;;;21.10;57.60;;;;;;5002466;28;20278;-45
2023/08/03 05:40:29;;;;;;;5.83;1.33;;;21.30;57.30;;;;;;5001780;28;20586;-47
2023/08/03 05:42:55;;;;;;;3.90;1.20;;;21.20;57.00;;;;;;5003338;28;20190;-45
2023/08/03 05:45:40;;;;;;;3.17;1.60;;;21.20;56.90;;;;;;5005332;28;20217;-45
2023/08/03 05:48:15;;;;;;;2.97;1.17;;;21.10;57.40;;;;;;5006431;28;20673;-46
2023/08/03 05:50:43;;;;;;;4.67;1.33;;;21.00;57.80;;;;;;5002633;28;20522;-44
2023/08/03 05:53:10;;;;;;;4.50;1.10;;;21.10;57.60;;;;;;5008395;28;20492;-45
2023/08/03 05:55:35;;;;;;;5.97;1.40;;;21.00;57.50;;;;;;5004493;28;20940;-46
2023/08/03 05:58:01;;;;;;;1.90;0.80;;;21.00;57.70;;;;;;5006030;28;20452;-48
2023/08/03 06:00:28;;;;;;;1.53;0.83;;;21.20;57.80;;;;;;5007693;28;20276;-47
2023/08/03 06:02:58;;;;;;;2.77;1.10;;;21.00;58.10;;;;;;5002519;28;20201;-46
2023/08/03 06:05:46;;;;;;;2.10;1.00;;;21.10;58.10;;;;;;5003907;28;21459;-49
2023/08/03 06:08:18;;;;;;;4.20;1.10;;;21.20;57.60;;;;;;5000786;28;20487;-47
2023/08/03 06:10:45;;;;;;;6.63;1.10;;;21.10;58.00;;;;;;5008902;28;20459;-46
2023/08/03 06:13:16;;;;;;;3.30;1.10;;;21.00;57.70;;;;;;5022768;28;20952;-48
2023/08/03 06:15:43;;;;;;;2.70;1.10;;;21.20;57.70;;;;;;5006975;28;20451;-48
2023/08/03 06:18:11;;;;;;;5.53;1.97;;;21.20;58.00;;;;;;5007607;28;20543;-45
2023/08/03 06:20:51;;;;;;;4.10;1.00;;;21.30;57.80;;;;;;5005695;28;20484;-50
2023/08/03 06:23:17;;;;;;;3.23;1.27;;;21.10;57.80;;;;;;5005381;28;20849;-49
2023/08/03 06:25:44;;;;;;;3.27;1.20;;;21.20;57.30;;;;;;5001728;28;21122;-49
2023/08/03 06:28:13;;;;;;;3.20;1.40;;;21.60;58.00;;;;;;5007746;28;20452;-51
2023/08/03 06:30:39;;;;;;;1.60;0.90;;;21.40;57.50;;;;;;5006527;28;20930;-51
2023/08/03 06:33:07;;;;;;;3.60;1.27;;;21.50;57.20;;;;;;5011506;28;20445;-49
2023/08/03 06:35:37;;;;;;;1.93;1.00;;;21.60;56.80;;;;;;5009340;28;20421;-50
2023/08/03 06:38:08;;;;;;;2.80;1.30;;;21.60;56.20;;;;;;5010575;28;20885;-50
2023/08/03 06:40:34;;;;;;;5.90;1.27;;;21.80;56.80;;;;;;5009763;28;20488;-51
2023/08/03 06:43:01;;;;;;;3.70;1.57;;;21.90;56.10;;;;;;5008880;28;20924;-51
2023/08/03 06:45:29;;;;;;;4.20;1.40;;;21.90;55.90;;;;;;5002954;28;20920;-48
2023/08/03 06:47:54;;;;;;;2.77;1.03;;;21.90;55.10;;;;;;4999081;28;20437;-51
2023/08/03 06:50:20;;;;;;;2.23;1.10;;;21.80;55.60;;;;;;5000931;28;20448;-50
2023/08/03 06:52:45;;;;;;;2.97;1.57;;;21.90;55.00;;;;;;4998599;28;20233;-49
2023/08/03 06:55:11;;;;;;;3.27;1.10;;;21.80;54.50;;;;;;5006522;28;20197;-48
2023/08/03 06:57:37;;;;;;;3.33;1.10;;;22.10;54.40;;;;;;4998769;28;20202;-50
2023/08/03 07:00:03;;;;;;;6.40;1.67;;;22.00;53.80;;;;;;4993501;28;20237;-51
2023/08/03 07:02:28;;;;;;;2.03;1.23;;;22.10;53.70;;;;;;5008513;28;20563;-49
2023/08/03 07:04:54;;;;;;;1.03;0.87;;;22.10;53.40;;;;;;5007519;28;20448;-47
2023/08/03 07:07:19;;;;;;;1.80;1.10;;;22.00;52.00;;;;;;5003606;28;20194;-46
2023/08/03 07:09:48;;;;;;;1.73;1.07;;;22.10;50.80;;;;;;5010072;28;20537;-48
2023/08/03 07:12:14;;;;;;;1.83;0.93;;;21.80;50.20;;;;;;4998565;28;20195;-50
2023/08/03 07:14:40;;;;;;;3.60;1.50;;;21.90;50.90;;;;;;5000132;28;20850;-50
2023/08/03 07:17:06;;;;;;;1.63;1.03;;;22.20;52.00;;;;;;5011249;28;20452;-51
2023/08/03 07:19:32;;;;;;;1.93;1.00;;;22.30;50.30;;;;;;5011800;28;20689;-45
2023/08/03 07:21:57;;;;;;;2.37;1.10;;;22.40;50.20;;;;;;5004567;28;20210;-49
2023/08/03 07:24:23;;;;;;;2.50;1.10;;;22.40;50.10;;;;;;5011411;28;20201;-50
2023/08/03 07:26:49;;;;;;;3.17;1.17;;;22.30;49.90;;;;;;4995107;28;20317;-50
2023/08/03 07:29:15;;;;;;;1.67;0.90;;;22.40;50.10;;;;;;5013372;28;20448;-47
2023/08/03 07:31:41;;;;;;;4.37;1.30;;;22.60;49.00;;;;;;5016504;28;20831;-52
2023/08/03 07:34:06;;;;;;;3.13;1.10;;;22.80;49.30;;;;;;5002490;28;20491;-49
2023/08/03 07:36:32;;;;;;;2.20;1.30;;;22.90;49.30;;;;;;5011888;28;20190;-49
2023/08/03 07:38:58;;;;;;;2.47;1.00;;;22.80;48.80;;;;;;5008917;28;20222;-50
2023/08/03 07:41:23;;;;;;;2.63;1.10;;;22.80;49.20;;;;;;5002992;28;20776;-45
2023/08/03 07:43:50;;;;;;;3.23;0.90;;;22.40;48.70;;;;;;5012307;28;20202;-45
2023/08/03 07:46:16;;;;;;;4.00;1.47;;;22.50;49.30;;;;;;5007560;28;20252;-49
2023/08/03 07:48:41;;;;;;;3.93;1.20;;;22.40;49.40;;;;;;5009393;28;20444;-45
2023/08/03 07:51:14;;;;;;;2.07;1.20;;;22.20;48.60;;;;;;5003288;28;20195;-46
2023/08/03 07:53:40;;;;;;;2.07;0.70;;;22.40;49.00;;;;;;5007654;28;20317;-45
2023/08/03 07:56:15;;;;;;;1.60;1.00;;;22.40;49.10;;;;;;5001649;28;20952;-47
2023/08/03 07:58:40;;;;;;;1.40;0.97;;;22.30;48.70;;;;;;5001061;28;20213;-49
2023/08/03 08:01:07;;;;;;;1.30;1.00;;;22.30;49.00;;;;;;5007376;28;20472;-45
2023/08/03 08:03:34;;;;;;;3.43;0.97;;;22.00;49.10;;;;;;5004636;28;20205;-47
2023/08/03 08:06:06;;;;;;;1.70;0.80;;;22.20;49.70;;;;;;5009677;28;20476;-47
2023/08/03 08:08:31;;;;;;;5.73;1.20;;;22.10;49.30;;;;;;5008266;28;20444;-44
2023/08/03 08:10:57;;;;;;;0.90;0.70;;;22.00;50.10;;;;;;5008142;28;20445;-48
2023/08/03 08:13:23;;;;;;;2.57;1.10;;;22.20;50.00;;;;;;5001065;28;20552;-46
2023/08/03 08:15:48;;;;;;;2.00;0.97;;;22.50;49.90;;;;;;5009687;28;20283;-45
2023/08/03 08:18:14;;;;;;;2.87;1.00;;;22.60;49.00;;;;;;5007751;28;20249;-45
2023/08/03 08:20:40;;;;;;;2.13;1.10;;;22.60;49.00;;;;;;5005324;28;20240;-46
2023/08/03 08:23:05;;;;;;;3.10;1.10;;;22.70;49.00;;;;;;4998092;28;20194;-50
2023/08/03 08:25:33;;;;;;;3.93;1.50;;;22.70;49.00;;;;;;5004283;28;20229;-50
2023/08/03 08:27:59;;;;;;;3.10;1.10;;;22.90;49.30;;;;;;5005968;28;20633;-47
2023/08/03 08:30:24;;;;;;;1.20;1.10;;;22.80;48.70;;;;;;5009829;28;20444;-50
2023/08/03 08:32:50;;;;;;;1.87;1.00;;;23.00;49.30;;;;;;5000169;28;20200;-48
2023/08/03 08:35:15;;;;;;;2.20;0.90;;;23.20;49.00;;;;;;4999206;28;20237;-50
2023/08/03 08:37:41;;;;;;;3.63;0.80;;;23.20;48.80;;;;;;5005357;28;20205;-50
2023/08/03 08:40:11;;;;;;;4.03;1.10;;;23.20;48.80;;;;;;5009666;28;20284;-46
2023/08/03 08:42:38;;;;;;;3.90;1.33;;;23.00;48.20;;;;;;5007569;28;20201;-45
2023/08/03 08:45:07;;;;;;;1.97;0.90;;;22.70;48.20;;;;;;5007367;28;20456;-47
2023/08/03 08:47:33;;;;;;;2.00;0.80;;;22.60;49.50;;;;;;5006339;28;20448;-45
2023/08/03 08:49:58;;;;;;;1.40;0.90;;;22.60;49.30;;;;;;5004809;28;20448;-45
2023/08/03 08:52:28;;;;;;;2.47;1.00;;;22.60;49.30;;;;;;5008265;28;20233;-51
2023/08/03 08:55:17;;;;;;;3.27;1.03;;;22.60;49.50;;;;;;5011804;28;20189;-49
2023/08/03 08:57:43;;;;;;;0.80;0.70;;;23.00;50.10;;;;;;5003292;28;20464;-47
2023/08/03 09:00:09;;;;;;;2.20;0.87;;;23.20;48.90;;;;;;4993734;28;20489;-48
2023/08/03 09:02:36;;;;;;;2.00;1.07;;;23.30;48.70;;;;;;5005345;28;20198;-45
2023/08/03 09:05:08;;;;;;;2.63;0.90;;;23.10;47.90;;;;;;5015691;28;20436;-46
2023/08/03 09:07:34;;;;;;;1.27;0.80;;;23.00;48.10;;;;;;5003814;28;20484;-45
2023/08/03 09:10:03;;;;;;;6.00;1.10;;;23.10;49.00;;;;;;5019638;28;20488;-45
2023/08/03 09:12:29;;;;;;;3.23;1.27;;;23.20;49.10;;;;;;5005688;28;20190;-45
2023/08/03 09:14:58;;;;;;;2.20;0.80;;;23.20;49.50;;;;;;5008483;28;20444;-44
2023/08/03 09:17:24;;;;;;;2.07;0.90;;;23.50;49.70;;;;;;5002823;28;20209;-44
2023/08/03 09:19:53;;;;;;;1.10;1.00;;;23.40;48.50;;;;;;5005212;28;20995;-48
2023/08/03 09:22:24;;;;;;;1.53;0.80;;;23.40;48.90;;;;;;5012662;28;20459;-46
2023/08/03 09:25:19;;;;;;;1.90;0.80;;;23.30;48.90;;;;;;5006532;28;20537;-49
2023/08/03 09:27:49;;;;;;;1.20;0.77;;;23.40;48.60;;;;;;5014479;28;20479;-46
2023/08/03 09:30:15;;;;;;;2.10;0.80;;;23.10;48.20;;;;;;5005982;28;20441;-49
2023/08/03 09:32:41;;;;;;;4.00;1.33;;;23.20;48.70;;;;;;5009503;28;20441;-45
2023/08/03 09:35:23;;;;;;;1.30;0.83;;;23.20;48.90;;;;;;5008399;28;20202;-45
2023/08/03 09:37:51;;;;;;;0.70;0.57;;;22.90;48.70;;;;;;5004219;28;20445;-45
2023/08/03 09:40:19;;;;;;;3.83;1.10;;;22.90;48.70;;;;;;5010162;28;20480;-46
2023/08/03 09:42:47;;;;;;;4.10;0.90;;;22.90;48.70;;;;;;5002472;28;20449;-46
2023/08/03 09:45:12;;;;;;;1.33;0.90;;;22.80;48.70;;;;;;5000496;28;20445;-47
2023/08/03 09:47:39;;;;;;;1.37;0.97;;;22.80;48.60;;;;;;5010131;28;20449;-46
2023/08/03 09:50:05;;;;;;;1.90;0.80;;;22.90;48.50;;;;;;5010120;28;20212;-45
2023/08/03 09:52:32;;;;;;;1.10;0.80;;;22.90;48.90;;;;;;5011180;28;20472;-44
2023/08/03 09:55:12;;;;;;;2.13;1.00;;;23.00;48.90;;;;;;5011452;28;20452;-46
2023/08/03 09:57:40;;;;;;;1.13;0.80;;;22.90;49.00;;;;;;5009775;28;20456;-46
2023/08/03 10:00:07;;;;;;;2.90;0.90;;;23.00;49.10;;;;;;5009817;28;20516;-46
2023/08/03 10:03:00;;;;;;;3.13;1.80;;;23.20;49.20;;;;;;5009214;28;20453;-46
2023/08/03 10:05:29;;;;;;;1.93;0.77;;;23.30;48.80;;;;;;5006907;28;20464;-45
2023/08/03 10:08:06;;;;;;;1.17;0.93;;;23.40;48.50;;;;;;4999197;28;20461;-44
2023/08/03 10:10:36;;;;;;;1.03;0.70;;;23.50;48.70;;;;;;5007051;28;20460;-44
2023/08/03 10:13:06;;;;;;;1.80;0.90;;;23.70;48.30;;;;;;5009884;28;20777;-45
2023/08/03 10:15:32;;;;;;;1.70;0.83;;;23.70;48.60;;;;;;4998226;28;20449;-45
2023/08/03 10:17:58;;;;;;;2.13;0.83;;;23.80;48.60;;;;;;5007149;28;20456;-45
2023/08/03 10:20:25;;;;;;;1.20;0.70;;;23.70;48.20;;;;;;5003843;28;20488;-45
2023/08/03 10:23:17;;;;;;;2.20;0.80;;;23.80;48.80;;;;;;5003925;28;20444;-45
2023/08/03 10:26:00;;;;;;;2.40;0.80;;;24.00;48.80;;;;;;4998826;28;20959;-45
2023/08/03 10:28:38;;;;;;;2.30;0.73;;;24.10;48.80;;;;;;5005022;28;20952;-46
2023/08/03 10:31:20;;;;;;;1.63;0.70;;;24.00;48.10;;;;;;5006563;28;20478;-45
2023/08/03 10:33:49;;;;;;;2.30;0.87;;;23.80;47.80;;;;;;5001556;28;20453;-45
2023/08/03 10:38:57;;;;;;;1.50;1.17;;;24.30;47.90;;;;;;4999883;28;20503;-44
2023/08/03 10:41:37;;;;;;;2.13;1.03;;;24.00;47.40;;;;;;5004590;28;20792;-45
2023/08/03 10:44:05;;;;;;;2.50;0.77;;;23.90;47.60;;;;;;5001986;28;20448;-44
2023/08/03 10:46:32;;;;;;;2.50;0.90;;;24.00;48.10;;;;;;5006337;28;20457;-49
2023/08/03 10:48:58;;;;;;;1.03;0.73;;;24.00;48.20;;;;;;5005450;28;20449;-50
2023/08/03 10:51:23;;;;;;;0.60;0.50;;;24.00;47.80;;;;;;5011714;28;20518;-50
2023/08/03 10:53:49;;;;;;;1.60;0.80;;;23.80;47.70;;;;;;5015085;28;20245;-46
2023/08/03 10:56:14;;;;;;;2.93;0.70;;;24.00;48.20;;;;;;5013279;28;20194;-49
2023/08/03 10:58:48;;;;;;;1.73;0.87;;;23.90;47.30;;;;;;5004269;28;20193;-48
2023/08/03 11:01:20;;;;;;;4.50;0.87;;;24.00;47.90;;;;;;5009311;28;20193;-48
2023/08/03 11:03:46;;;;;;;2.03;0.87;;;23.90;47.30;;;;;;5012155;28;20452;-48
2023/08/03 11:06:12;;;;;;;1.70;0.90;;;23.90;47.80;;;;;;4994388;28;20461;-48
2023/08/03 11:08:38;;;;;;;1.40;0.63;;;24.00;48.10;;;;;;5007444;28;20186;-49
2023/08/03 11:11:04;;;;;;;1.43;1.10;;;24.20;48.00;;;;;;5004798;28;20457;-46
2023/08/03 11:13:29;;;;;;;0.83;0.80;;;24.20;47.30;;;;;;5007284;28;20436;-47
2023/08/03 11:15:55;;;;;;;3.43;0.80;;;24.30;47.30;;;;;;5012088;28;20205;-49
2023/08/03 11:18:21;;;;;;;0.60;0.60;;;24.40;47.20;;;;;;5011899;28;20194;-46
2023/08/03 11:20:46;;;;;;;2.03;0.90;;;24.50;47.90;;;;;;4999675;28;20248;-46
2023/08/03 11:23:12;;;;;;;1.57;0.70;;;24.60;47.90;;;;;;5007801;28;20618;-45
2023/08/03 11:25:39;;;;;;;0.80;0.70;;;24.80;47.80;;;;;;5012243;28;20198;-48
2023/08/03 11:28:05;;;;;;;1.47;0.97;;;24.80;46.30;;;;;;5012041;28;20190;-44
2023/08/03 11:30:30;;;;;;;2.20;0.80;;;24.70;46.90;;;;;;5013173;28;21007;-45
2023/08/03 11:33:00;;;;;;;1.50;0.70;;;24.80;47.50;;;;;;5004248;28;20198;-45
2023/08/03 11:35:27;;;;;;;1.50;0.80;;;24.90;46.80;;;;;;5007592;28;20194;-47
2023/08/03 11:37:53;;;;;;;3.13;1.13;;;24.90;47.10;;;;;;5010340;28;20810;-44
2023/08/03 11:40:19;;;;;;;1.10;0.60;;;24.70;45.70;;;;;;5003329;28;20595;-46
2023/08/03 11:42:45;;;;;;;1.23;0.83;;;24.50;45.70;;;;;;5005695;28;21065;-46
2023/08/03 11:45:12;;;;;;;1.97;0.90;;;24.60;46.40;;;;;;5008021;28;20200;-47
2023/08/03 11:47:46;;;;;;;2.00;1.00;;;24.70;46.40;;;;;;5010744;28;20518;-45
2023/08/03 11:50:12;;;;;;;2.30;0.80;;;24.80;46.40;;;;;;5009970;28;20453;-44
2023/08/03 11:52:38;;;;;;;2.37;1.03;;;24.90;46.90;;;;;;5010282;28;20476;-45
2023/08/03 11:55:04;;;;;;;1.27;0.70;;;25.20;46.60;;;;;;5012970;28;20451;-47
2023/08/03 12:00:15;;;;;;;0.97;0.80;;;25.70;45.00;;;;;;5011580;28;20241;-47
2023/08/03 12:02:43;;;;;;;2.60;0.80;;;25.70;45.30;;;;;;5005078;28;20444;-45
2023/08/03 12:05:10;;;;;;;2.50;0.80;;;25.80;45.10;;;;;;5006809;28;20402;-47
2023/08/03 12:07:35;;;;;;;1.60;0.93;;;25.90;45.10;;;;;;5010444;28;20460;-46
2023/08/03 12:10:12;;;;;;;1.37;1.10;;;25.90;45.10;;;;;;5001013;28;20793;-52
2023/08/03 12:12:39;;;;;;;2.03;0.67;;;26.10;45.30;;;;;;4999062;28;20194;-46
2023/08/03 12:15:09;;;;;;;1.10;0.83;;;26.50;44.30;;;;;;5010681;28;20452;-45
2023/08/03 12:17:34;;;;;;;1.80;0.60;;;26.60;44.40;;;;;;4997785;28;20450;-49
2023/08/03 12:20:00;;;;;;;1.97;0.80;;;26.40;44.10;;;;;;5018213;28;20495;-45
2023/08/03 12:22:25;;;;;;;1.97;0.80;;;26.20;43.70;;;;;;5012702;28;20201;-48
2023/08/03 12:24:51;;;;;;;1.07;0.97;;;26.20;44.50;;;;;;5003959;28;20233;-45
2023/08/03 12:27:16;;;;;;;1.33;0.73;;;26.10;44.00;;;;;;5004081;28;20590;-47
2023/08/03 12:29:42;;;;;;;3.57;1.20;;;26.20;45.00;;;;;;5010643;28;20202;-45
2023/08/03 12:32:08;;;;;;;2.93;0.80;;;26.50;44.50;;;;;;5010578;28;20224;-47
2023/08/03 12:34:34;;;;;;;1.13;0.60;;;26.70;43.70;;;;;;5008740;28;20198;-45
2023/08/03 12:36:59;;;;;;;1.00;0.70;;;26.80;43.40;;;;;;5002064;28;20441;-46
2023/08/03 12:39:25;;;;;;;2.50;0.77;;;26.90;42.70;;;;;;5005714;28;20268;-46
2023/08/03 12:41:50;;;;;;;1.60;0.70;;;27.30;42.40;;;;;;4994188;28;20196;-46
2023/08/03 12:44:16;;;;;;;1.50;0.90;;;27.70;42.20;;;;;;5001910;28;20190;-46
2023/08/03 12:46:42;;;;;;;0.60;0.60;;;27.40;40.90;;;;;;5003613;28;20194;-46
2023/08/03 12:49:07;;;;;;;1.23;0.70;;;27.00;41.50;;;;;;5004435;28;20200;-46
2023/08/03 12:51:35;;;;;;;1.77;0.90;;;27.20;42.00;;;;;;5005501;28;20285;-45